Time;durP1;ratioP1;P1;durP2;ratioP2;P2;SDS_P1;SDS_P2;PMS_P1;PMS_P2;Temp;Humidity;BMP_temperature;BMP_pressure;BME280_temperature;BME280_humidity;BME280_pressure;Samples;Min_cycle;Max_cycle;Signal;HPM_P1;HPM_P2
2022/03/03 00:01:51;;;;;;;;;31.75;30.00;;;;;-0.23;100.00;100987.31;3725210;38;20646;-62
2022/03/03 00:04:20;;;;;;;;;35.25;30.50;;;;;-0.24;100.00;100969.66;3725359;38;20628;-60
2022/03/03 00:06:51;;;;;;;;;40.75;35.25;;;;;-0.24;100.00;100979.44;3727019;37;20549;-60
2022/03/03 00:09:19;;;;;;;;;41.75;34.00;;;;;-0.22;100.00;100989.00;3725619;38;20632;-60
2022/03/03 00:11:51;;;;;;;;;40.00;36.00;;;;;-0.24;100.00;100977.62;3725342;37;20951;-59
2022/03/03 00:14:21;;;;;;;;;39.75;35.75;;;;;-0.29;100.00;100961.12;3725587;37;20531;-58
2022/03/03 00:16:50;;;;;;;;;34.00;32.50;;;;;-0.22;100.00;100975.72;3725387;38;20523;-58
2022/03/03 00:19:22;;;;;;;;;40.75;35.00;;;;;-0.21;100.00;100973.91;3725462;38;20651;-61
2022/03/03 00:21:52;;;;;;;;;33.00;31.00;;;;;-0.20;100.00;100978.28;3725378;37;20933;-58
2022/03/03 00:24:20;;;;;;;;;29.25;26.25;;;;;-0.21;100.00;100966.78;3725215;37;20519;-60
2022/03/03 00:26:51;;;;;;;;;38.25;33.25;;;;;-0.21;100.00;100966.78;3725408;38;20868;-58
2022/03/03 00:29:20;;;;;;;;;48.25;42.00;;;;;-0.21;100.00;100979.22;3725444;37;20636;-60
2022/03/03 00:31:56;;;;;;;;;32.25;31.00;;;;;-0.23;100.00;100971.34;3725453;38;20606;-59
2022/03/03 00:34:34;;;;;;;;;42.00;36.25;;;;;-0.24;100.00;100969.66;3725506;37;20647;-60
2022/03/03 00:37:04;;;;;;;;;41.25;37.25;;;;;-0.22;100.00;100958.91;3725576;38;20594;-58
2022/03/03 00:39:32;;;;;;;;;42.00;35.25;;;;;-0.24;100.00;100972.31;3725064;38;20499;-60
2022/03/03 00:42:02;;;;;;;;;35.75;32.50;;;;;-0.23;100.00;100968.69;3725418;37;20774;-59
2022/03/03 00:44:30;;;;;;;;;38.50;35.75;;;;;-0.24;100.00;100959.00;3725525;38;20578;-59
2022/03/03 00:46:57;;;;;;;;;42.50;38.25;;;;;-0.23;100.00;100965.19;3725001;37;20886;-60
2022/03/03 00:49:31;;;;;;;;;38.25;35.25;;;;;-0.23;100.00;100959.84;3725833;38;20551;-61
2022/03/03 00:51:59;;;;;;;;;46.50;37.00;;;;;-0.23;100.00;100966.03;3725782;37;20895;-60
2022/03/03 00:54:29;;;;;;;;;33.25;30.50;;;;;-0.24;100.00;100956.34;3725531;38;20740;-59
2022/03/03 00:56:56;;;;;;;;;35.75;32.75;;;;;-0.23;100.00;100949.22;3725540;37;20754;-60
2022/03/03 00:59:27;;;;;;;;;36.25;31.75;;;;;-0.22;100.00;100956.25;3724705;38;20931;-60
2022/03/03 01:01:55;;;;;;;;;31.25;30.75;;;;;-0.23;100.00;100947.41;3724663;38;20821;-60
2022/03/03 01:04:25;;;;;;;;;37.50;32.25;;;;;-0.24;100.00;100942.19;3724234;38;20779;-62
2022/03/03 01:06:56;;;;;;;;;34.50;26.50;;;;;-0.23;100.00;100949.22;3724940;37;20456;-59
2022/03/03 01:09:24;;;;;;;;;39.75;37.25;;;;;-0.26;100.00;100942.31;3724772;37;20569;-61
2022/03/03 01:11:53;;;;;;;;;30.75;26.25;;;;;-0.25;100.00;100949.31;3724859;38;20567;-61
2022/03/03 01:14:23;;;;;;;;;44.00;37.00;;;;;-0.27;100.00;100945.06;3725286;37;20572;-62
2022/03/03 01:16:52;;;;;;;;;30.00;27.25;;;;;-0.23;100.00;100946.56;3724589;37;20506;-61
2022/03/03 01:19:21;;;;;;;;;34.75;32.75;;;;;-0.23;100.00;100938.59;3724875;38;20423;-63
2022/03/03 01:21:50;;;;;;;;;42.25;32.00;;;;;-0.24;100.00;100939.53;3724773;38;20543;-60
2022/03/03 01:24:19;;;;;;;;;40.75;36.75;;;;;-0.23;100.00;100942.09;3724160;37;20696;-60
2022/03/03 01:26:48;;;;;;;;;40.00;36.25;;;;;-0.24;100.00;100942.19;3724495;38;20793;-61
2022/03/03 01:29:23;;;;;;;;;33.50;32.25;;;;;-0.30;100.00;100919.53;3724725;37;20433;-59
2022/03/03 01:31:54;;;;;;;;;29.50;28.50;;;;;-0.25;100.00;100937.84;3724709;38;20519;-62
2022/03/03 01:34:24;;;;;;;;;40.50;35.75;;;;;-0.26;100.00;100922.84;3724803;37;20654;-61
2022/03/03 01:36:53;;;;;;;;;29.00;25.75;;;;;-0.24;100.00;100936.88;3724411;37;20526;-61
2022/03/03 01:39:24;;;;;;;;;27.00;22.00;;;;;-0.39;100.00;100914.84;3724723;38;20723;-60
2022/03/03 01:41:57;;;;;;;;;38.00;33.00;;;;;-0.34;100.00;100921.53;3724728;37;20679;-61
2022/03/03 01:44:28;;;;;;;;;34.75;30.50;;;;;-0.25;100.00;100933.38;3724749;38;20819;-61
2022/03/03 01:46:59;;;;;;;;;31.00;26.00;;;;;-0.28;100.00;100924.75;3725090;37;20414;-61
2022/03/03 01:49:29;;;;;;;;;32.00;28.50;;;;;-0.28;100.00;100922.09;3724944;38;20909;-61
2022/03/03 01:52:00;;;;;;;;;20.50;16.50;;;;;-0.25;100.00;100924.53;3724687;37;20461;-61
2022/03/03 01:54:32;;;;;;;;;37.00;35.00;;;;;-0.25;100.00;100916.56;3724546;37;20390;-63
2022/03/03 01:57:04;;;;;;;;;32.75;30.75;;;;;-0.26;100.00;100930.81;3724665;38;20528;-60
2022/03/03 01:59:34;;;;;;;;;28.75;26.50;;;;;-0.25;100.00;100930.72;3724771;37;20721;-60
2022/03/03 02:02:06;;;;;;;;;36.25;34.25;;;;;-0.27;100.00;100921.97;3725129;37;20402;-60
2022/03/03 02:04:35;;;;;;;;;28.00;27.00;;;;;-0.33;100.00;100917.09;3724989;38;20447;-59
2022/03/03 02:07:10;;;;;;;;;36.00;35.50;;;;;-0.30;100.00;100911.56;3724860;38;20889;-60
2022/03/03 02:09:48;;;;;;;;;28.00;24.25;;;;;-0.38;100.00;100903.25;3724706;37;20437;-61
2022/03/03 02:12:17;;;;;;;;;20.25;17.50;;;;;-0.34;100.00;100918.03;3725142;38;20759;-59
2022/03/03 02:14:47;;;;;;;;;43.00;36.75;;;;;-0.37;100.00;100919.09;3725167;37;20720;-58
2022/03/03 02:17:18;;;;;;;;;30.75;27.50;;;;;-0.38;100.00;100919.19;3725108;38;20371;-61
2022/03/03 02:19:50;;;;;;;;;39.50;32.75;;;;;-0.39;100.00;100925.47;3724625;38;20787;-60
2022/03/03 02:22:24;;;;;;;;;39.75;35.75;;;;;-0.39;100.00;100915.69;3724686;37;20520;-61
2022/03/03 02:24:54;;;;;;;;;38.00;36.00;;;;;-0.38;100.00;100913.88;3724644;37;20474;-60
2022/03/03 02:27:22;;;;;;;;;37.00;33.50;;;;;-0.38;100.00;100904.09;3724790;38;20463;-60
2022/03/03 02:29:52;;;;;;;;;26.50;23.25;;;;;-0.59;100.00;100879.00;3724995;38;20707;-60
2022/03/03 02:32:25;;;;;;;;;41.50;35.75;;;;;-0.46;100.00;100902.91;3724871;38;20728;-62
2022/03/03 02:34:57;;;;;;;;;43.25;35.50;;;;;-0.45;100.00;100888.66;3725139;38;20361;-61
2022/03/03 02:37:38;;;;;;;;;35.25;31.25;;;;;-0.49;100.00;100885.38;3725058;38;20777;-62
2022/03/03 02:40:11;;;;;;;;;27.50;24.75;;;;;-0.41;100.00;100906.12;3725154;37;20359;-61
2022/03/03 02:42:41;;;;;;;;;36.75;34.75;;;;;-0.44;100.00;100891.22;3725383;37;20342;-59
2022/03/03 02:45:11;;;;;;;;;33.50;30.25;;;;;-0.44;100.00;100895.69;3725291;37;20390;-61
2022/03/03 02:47:48;;;;;;;;;41.25;34.00;;;;;-0.43;100.00;100905.38;3725249;37;20488;-61
2022/03/03 02:50:25;;;;;;;;;40.75;35.75;;;;;-0.42;100.00;100897.28;3724934;37;20554;-61
2022/03/03 02:52:54;;;;;;;;;45.75;38.50;;;;;-0.46;100.00;100882.50;3724688;38;20307;-60
2022/03/03 02:55:22;;;;;;;;;31.50;31.25;;;;;-0.42;100.00;100885.78;3725180;37;20300;-60
2022/03/03 02:57:54;;;;;;;;;32.75;28.25;;;;;-0.40;100.00;100886.53;3724874;37;20297;-60
2022/03/03 03:00:29;;;;;;;;;43.00;37.50;;;;;-0.42;100.00;100889.31;3724727;37;20407;-61
2022/03/03 03:03:00;;;;;;;;;23.25;22.75;;;;;-0.41;100.00;100896.34;3724993;38;20606;-60
2022/03/03 03:05:29;;;;;;;;;35.75;33.75;;;;;-0.44;100.00;100877.94;3725170;38;20308;-60
2022/03/03 03:07:57;;;;;;;;;41.50;35.25;;;;;-0.37;100.00;100897.81;3724673;38;20703;-59
2022/03/03 03:10:30;;;;;;;;;40.50;35.25;;;;;-0.36;100.00;100888.88;3725220;38;20297;-61
2022/03/03 03:12:59;;;;;;;;;41.75;36.00;;;;;-0.33;100.00;100887.81;3725149;37;20435;-60
2022/03/03 03:15:32;;;;;;;;;34.00;29.75;;;;;-0.32;100.00;100883.38;3724803;37;20404;-61
2022/03/03 03:18:18;;;;;;;;;32.25;30.50;;;;;-0.32;100.00;100894.84;3725208;37;20399;-62
2022/03/03 03:20:50;;;;;;;;;44.00;37.00;;;;;-0.37;100.00;100879.22;3724897;38;20490;-60
2022/03/03 03:23:28;;;;;;;;;41.25;33.25;;;;;-0.35;100.00;100885.28;3725284;38;20291;-60
2022/03/03 03:25:59;;;;;;;;;33.25;29.75;;;;;-0.31;100.00;100885.06;3725156;38;20578;-60
2022/03/03 03:28:27;;;;;;;;;33.75;28.50;;;;;-0.33;100.00;100887.81;3725130;37;20281;-61
2022/03/03 03:30:54;;;;;;;;;51.25;41.00;;;;;-0.39;100.00;100873.16;3724691;38;20385;-59
2022/03/03 03:33:22;;;;;;;;;31.50;31.50;;;;;-0.30;100.00;100884.97;3725006;38;20412;-59
2022/03/03 03:35:59;;;;;;;;;26.00;23.00;;;;;-0.30;100.00;100878.78;3725278;37;20580;-61
2022/03/03 03:38:31;;;;;;;;;43.50;37.50;;;;;-0.32;100.00;100881.56;3724640;37;20284;-60
2022/03/03 03:41:00;;;;;;;;;39.00;30.00;;;;;-0.39;100.00;100878.47;3725051;38;20688;-61
2022/03/03 03:43:29;;;;;;;;;38.00;33.00;;;;;-0.33;100.00;100879.84;3725202;37;20601;-62
2022/03/03 03:46:00;;;;;;;;;38.75;35.25;;;;;-0.35;100.00;100871.97;3725059;37;20664;-61
2022/03/03 03:48:33;;;;;;;;;32.50;31.00;;;;;-0.30;100.00;100882.28;3724933;38;20603;-61
2022/03/03 03:51:01;;;;;;;;;31.00;27.00;;;;;-0.35;100.00;100876.44;3724986;37;20265;-60
2022/03/03 03:53:33;;;;;;;;;37.50;35.50;;;;;-0.39;100.00;100867.81;3724993;37;20571;-61
2022/03/03 03:56:05;;;;;;;;;26.75;26.75;;;;;-0.32;100.00;100886.03;3725365;38;20558;-60
2022/03/03 03:58:35;;;;;;;;;13.50;9.50;;;;;-0.34;100.00;100875.50;3724878;37;20211;-62
2022/03/03 04:01:02;;;;;;;;;37.00;35.50;;;;;-0.33;100.00;100879.84;3725266;37;20470;-60
2022/03/03 04:03:32;;;;;;;;;35.75;33.50;;;;;-0.37;100.00;100883.69;3725413;37;20421;-59
2022/03/03 04:06:04;;;;;;;;;49.50;36.75;;;;;-0.31;100.00;100891.22;3725439;37;20298;-61
2022/03/03 04:08:37;;;;;;;;;45.25;41.75;;;;;-0.30;100.00;100882.28;3724987;37;20222;-61
2022/03/03 04:11:07;;;;;;;;;42.50;38.75;;;;;-0.30;100.00;100876.12;3724946;37;20350;-61
2022/03/03 04:13:40;;;;;;;;;31.25;29.50;;;;;-0.29;100.00;100878.69;3725460;38;20572;-61
2022/03/03 04:16:08;;;;;;;;;33.50;30.25;;;;;-0.32;100.00;100870.91;3725264;37;20272;-60
2022/03/03 04:18:39;;;;;;;;;34.25;28.50;;;;;-0.28;100.00;100887.50;3725060;37;20313;-61
2022/03/03 04:21:11;;;;;;;;;32.25;29.50;;;;;-0.29;100.00;100880.50;3725475;38;20346;-61
2022/03/03 04:23:39;;;;;;;;;34.00;30.75;;;;;-0.29;100.00;100873.38;3725319;37;20290;-60
2022/03/03 04:26:13;;;;;;;;;33.50;29.50;;;;;-0.29;100.00;100884.00;3725444;37;20217;-61
2022/03/03 04:28:43;;;;;;;;;37.75;34.00;;;;;-0.32;100.00;100878.03;3725305;38;20326;-61
2022/03/03 04:31:15;;;;;;;;;40.75;36.25;;;;;-0.34;100.00;100871.03;3724837;37;20306;-59
2022/03/03 04:33:47;;;;;;;;;17.25;16.00;;;;;-0.35;100.00;100882.62;3724963;37;20606;-61
2022/03/03 04:36:16;;;;;;;;;29.00;24.50;;;;;-0.39;100.00;100856.34;3725313;38;20179;-61
2022/03/03 04:38:47;;;;;;;;;32.75;28.75;;;;;-0.33;100.00;100863.91;3724985;37;20184;-63
2022/03/03 04:41:16;;;;;;;;;36.00;30.25;;;;;-0.35;100.00;100871.97;3725181;38;20262;-60
2022/03/03 04:43:44;;;;;;;;;41.25;35.50;;;;;-0.39;100.00;100865.16;3725248;38;20511;-59
2022/03/03 04:46:12;;;;;;;;;42.50;37.75;;;;;-0.39;100.00;100867.81;3725335;38;20461;-59
2022/03/03 04:48:40;;;;;;;;;28.75;24.75;;;;;-0.38;100.00;100871.34;3725245;38;20114;-60
2022/03/03 04:51:10;;;;;;;;;38.50;30.25;;;;;-0.39;100.00;100864.31;3724987;37;20299;-61
2022/03/03 04:53:41;;;;;;;;;33.50;33.25;;;;;-0.36;100.00;100867.63;3725019;37;20208;-60
2022/03/03 04:56:10;;;;;;;;;32.75;32.25;;;;;-0.38;100.00;100861.56;3725323;37;20411;-62
2022/03/03 04:58:40;;;;;;;;;32.00;27.75;;;;;-0.37;100.00;100854.44;3725328;38;20593;-60
2022/03/03 05:01:09;;;;;;;;;40.00;35.25;;;;;-0.38;100.00;100858.03;3725364;37;20469;-61
2022/03/03 05:03:38;;;;;;;;;29.25;28.25;;;;;-0.36;100.00;100850.81;3725043;37;20530;-60
2022/03/03 05:06:06;;;;;;;;;25.75;25.00;;;;;-0.34;100.00;100865.69;3725099;37;20369;-61
2022/03/03 05:08:36;;;;;;;;;35.75;33.75;;;;;-0.41;100.00;100840.50;3725316;37;20173;-62
2022/03/03 05:11:04;;;;;;;;;36.75;31.75;;;;;-0.32;100.00;100862.09;3725358;37;20470;-61
2022/03/03 05:13:35;;;;;;;;;31.75;29.00;;;;;-0.35;100.00;100871.97;3726571;37;20526;-61
2022/03/03 05:16:04;;;;;;;;;33.50;31.75;;;;;-0.32;100.00;100856.75;3726048;37;20134;-60
2022/03/03 05:18:35;;;;;;;;;34.25;31.00;;;;;-0.37;100.00;100857.94;3725298;37;20255;-61
2022/03/03 05:21:04;;;;;;;;;32.50;28.75;;;;;-0.40;100.00;100867.94;3725050;38;20503;-60
2022/03/03 05:23:34;;;;;;;;;35.00;31.25;;;;;-0.41;100.00;100864.41;3724958;38;20107;-60
2022/03/03 05:26:05;;;;;;;;;31.75;29.50;;;;;-0.41;100.00;100860.91;3725308;38;20205;-58
2022/03/03 05:28:33;;;;;;;;;37.50;32.75;;;;;-0.42;100.00;100877.81;3725013;38;20431;-61
2022/03/03 05:31:01;;;;;;;;;40.00;38.00;;;;;-0.44;100.00;100861.13;3725221;37;20193;-61
2022/03/03 05:33:31;;;;;;;;;31.25;26.25;;;;;-0.46;100.00;100866.53;3725346;38;20233;-60
2022/03/03 05:36:06;;;;;;;;;35.75;33.00;;;;;-0.46;100.00;100860.37;3725054;37;20390;-60
2022/03/03 05:38:40;;;;;;;;;33.50;32.50;;;;;-0.45;100.00;100857.63;3724933;38;20111;-60
2022/03/03 05:41:10;;;;;;;;;41.25;37.25;;;;;-0.42;100.00;100862.72;3725003;37;20555;-59
2022/03/03 05:43:39;;;;;;;;;29.50;27.75;;;;;-0.44;100.00;100869.94;3725130;38;20415;-59
2022/03/03 05:46:08;;;;;;;;;37.50;30.25;;;;;-0.39;100.00;100867.81;3725464;37;20165;-60
2022/03/03 05:48:39;;;;;;;;;31.00;26.25;;;;;-0.43;100.00;100854.84;3725336;37;20158;-59
2022/03/03 05:51:06;;;;;;;;;26.25;24.00;;;;;-0.45;100.00;100862.94;3725057;38;20170;-61
2022/03/03 05:53:33;;;;;;;;;29.00;27.75;;;;;-0.44;100.00;100863.78;3725350;38;20297;-59
2022/03/03 05:56:09;;;;;;;;;42.25;34.50;;;;;-0.50;100.00;100850.91;3725373;37;20024;-58
2022/03/03 05:58:49;;;;;;;;;34.50;28.75;;;;;-0.46;100.00;100861.22;3725493;38;20096;-61
2022/03/03 06:01:19;;;;;;;;;27.75;26.50;;;;;-0.42;100.00;100860.06;3725035;37;20503;-59
2022/03/03 06:03:50;;;;;;;;;36.50;34.25;;;;;-0.50;100.00;100865.06;3725336;37;20151;-60
2022/03/03 06:06:21;;;;;;;;;40.25;31.75;;;;;-0.46;100.00;100847.94;3725610;38;20193;-62
2022/03/03 06:09:18;;;;;;;;;29.50;25.75;;;;;-0.37;100.00;100863.25;3725521;37;20044;-61
2022/03/03 06:11:49;;;;;;;;;32.00;30.50;;;;;-0.37;100.00;100865.91;3725381;38;20111;-60
2022/03/03 06:14:23;;;;;;;;;27.00;23.50;;;;;-0.39;100.00;100869.62;3725439;38;20004;-61
2022/03/03 06:16:51;;;;;;;;;27.00;26.00;;;;;-0.48;100.00;100863.13;3725690;38;20047;-63
2022/03/03 06:19:21;;;;;;;;;27.00;25.50;;;;;-0.46;100.00;100855.91;3725015;37;20278;-61
2022/03/03 06:21:49;;;;;;;;;29.75;28.75;;;;;-0.31;100.00;100854.00;3725355;38;20336;-61
2022/03/03 06:24:19;;;;;;;;;33.25;30.00;;;;;-0.28;100.00;100861.78;3725113;37;20387;-60
2022/03/03 06:26:49;;;;;;;;;27.75;26.00;;;;;-0.36;100.00;100875.59;3725025;38;20432;-61
2022/03/03 06:29:21;;;;;;;;;34.50;27.75;;;;;-0.41;100.00;100864.41;3724931;37;19986;-61
2022/03/03 06:31:49;;;;;;;;;30.50;27.75;;;;;-0.41;100.00;100868.88;3725388;37;19966;-57
2022/03/03 06:34:20;;;;;;;;;30.75;26.50;;;;;-0.40;100.00;100859.94;3725311;38;19998;-61
2022/03/03 06:36:48;;;;;;;;;30.75;28.00;;;;;-0.44;100.00;100864.63;3725446;37;19997;-61
2022/03/03 06:39:15;;;;;;;;;28.50;27.25;;;;;-0.42;100.00;100869.84;3725205;37;20396;-61
2022/03/03 06:41:44;;;;;;;;;28.00;23.75;;;;;-0.55;100.00;100882.31;3725491;38;20129;-60
2022/03/03 06:44:12;;;;;;;;;27.00;26.25;;;;;-0.46;100.00;100882.50;3725537;37;20293;-60
2022/03/03 06:46:40;;;;;;;;;32.50;27.00;;;;;-0.42;100.00;100870.69;3725473;37;20033;-60
2022/03/03 06:49:09;;;;;;;;;27.25;24.00;;;;;-0.40;100.00;100875.91;3725536;37;19958;-62
2022/03/03 06:51:47;;;;;;;;;30.25;26.50;;;;;-0.37;100.00;100867.72;3725069;37;20362;-60
2022/03/03 06:54:19;;;;;;;;;26.75;23.75;;;;;-0.50;100.00;100864.19;3725419;38;20102;-60
2022/03/03 06:56:51;;;;;;;;;28.25;24.25;;;;;-0.44;100.00;100882.41;3725363;38;19995;-63
2022/03/03 06:59:29;;;;;;;;;33.75;27.75;;;;;-0.38;100.00;100877.50;3725224;37;19947;-61
2022/03/03 07:01:59;;;;;;;;;35.00;34.00;;;;;-0.65;100.00;100858.16;3724910;37;19997;-58
2022/03/03 07:04:29;;;;;;;;;30.00;28.25;;;;;-0.48;100.00;100865.81;3725673;37;20112;-59
2022/03/03 07:06:58;;;;;;;;;41.75;37.50;;;;;-0.48;100.00;100860.47;3725811;38;20209;-60
2022/03/03 07:09:26;;;;;;;;;35.75;28.75;;;;;-0.40;100.00;100867.94;3725336;38;20274;-60
2022/03/03 07:11:53;;;;;;;;;52.00;38.50;;;;;-0.51;100.00;100870.47;3724895;38;19984;-60
2022/03/03 07:14:23;;;;;;;;;40.00;37.25;;;;;-0.49;100.00;100874.72;3724736;38;20403;-61
2022/03/03 07:17:05;;;;;;;;;37.75;35.75;;;;;-0.35;100.00;100873.78;3725163;37;20037;-62
2022/03/03 07:20:03;;;;;;;;;19.25;18.00;;;;;-0.49;100.00;100866.75;3725045;38;19977;-63
2022/03/03 07:23:04;;;;;;;;;33.00;30.25;;;;;-0.37;100.00;100881.88;3724709;37;20029;-58
2022/03/03 07:25:56;;;;;;;;;26.75;26.00;;;;;-0.28;100.00;100880.38;3724732;38;20191;-60
2022/03/03 07:28:27;;;;;;;;;27.25;26.75;;;;;-0.28;100.00;100880.38;3725170;38;19946;-63
2022/03/03 07:30:58;;;;;;;;;43.75;40.00;;;;;-0.31;100.00;100887.72;3725223;37;20060;-65
2022/03/03 07:33:53;;;;;;;;;42.25;38.00;;;;;-0.25;100.00;100882.84;3725143;37;20232;-59
2022/03/03 07:36:28;;;;;;;;;42.75;38.00;;;;;-0.23;100.00;100880.06;3725022;37;20109;-61
2022/03/03 07:38:58;;;;;;;;;27.25;27.00;;;;;-0.23;100.00;100875.59;3724633;37;19925;-61
2022/03/03 07:41:27;;;;;;;;;33.75;32.50;;;;;-0.23;100.00;100872.09;3725023;38;20210;-59
2022/03/03 07:43:58;;;;;;;;;38.25;33.50;;;;;-0.09;100.00;100874.63;3725503;38;19925;-64
2022/03/03 07:46:27;;;;;;;;;44.75;39.50;;;;;-0.22;100.00;100881.78;3725463;38;20010;-61
2022/03/03 07:48:56;;;;;;;;;46.50;39.50;;;;;-0.13;100.00;100870.50;3725836;37;20018;-63
2022/03/03 07:51:26;;;;;;;;;45.50;41.25;;;;;-0.12;100.00;100872.19;3725822;37;20181;-61
2022/03/03 07:54:01;;;;;;;;;40.75;37.50;;;;;-0.13;100.00;100867.81;3725726;37;20262;-61
2022/03/03 07:56:41;;;;;;;;;41.00;38.50;;;;;-0.06;100.00;100863.78;3726508;38;19920;-59
2022/03/03 07:59:16;;;;;;;;;44.75;41.25;;;;;-0.14;100.00;100874.09;3725545;38;19889;-59
2022/03/03 08:01:45;;;;;;;;;38.75;36.75;;;;;-0.11;100.00;100863.25;3725226;37;20183;-59
2022/03/03 08:04:16;;;;;;;;;39.50;38.50;;;;;-0.04;100.00;100872.50;3725713;38;20341;-59
2022/03/03 08:06:48;;;;;;;;;40.50;34.50;;;;;-0.05;100.00;100868.16;3725385;37;19977;-59
2022/03/03 08:09:22;;;;;;;;;28.75;28.75;;;;;-0.01;100.00;100856.31;3725381;37;20248;-59
2022/03/03 08:11:54;;;;;;;;;39.25;35.50;;;;;0.01;100.00;100857.03;3725391;37;19908;-61
2022/03/03 08:14:23;;;;;;;;;34.75;30.75;;;;;0.18;100.00;100862.00;3725471;38;20244;-60
2022/03/03 08:16:51;;;;;;;;;46.25;42.75;;;;;0.20;100.00;100867.22;3725618;38;19880;-60
2022/03/03 08:19:21;;;;;;;;;49.50;41.50;;;;;0.12;100.00;100864.25;3725573;37;19998;-60
2022/03/03 08:21:50;;;;;;;;;50.00;39.25;;;;;-0.08;100.00;100873.69;3725688;37;19890;-59
2022/03/03 08:24:20;;;;;;;;;32.25;30.00;;;;;0.13;100.00;100858.84;3725376;37;20303;-59
2022/03/03 08:26:47;;;;;;;;;40.00;37.25;;;;;0.12;100.00;100857.13;3725457;38;19992;-59
2022/03/03 08:29:19;;;;;;;;;32.50;28.75;;;;;0.28;100.00;100848.91;3725507;37;20125;-60
2022/03/03 08:31:56;;;;;;;;;52.75;41.75;;;;;0.21;100.00;100858.28;3725627;37;19973;-61
2022/03/03 08:35:12;;;;;;;;;40.75;36.50;;;;;-0.45;100.00;100751.25;3724929;37;19830;-60
2022/03/03 08:38:11;;;;;;;;;54.25;42.50;;;;;0.30;100.00;100858.47;3725600;38;20239;-61
2022/03/03 08:40:39;;;;;;;;;41.50;39.00;;;;;0.45;100.00;100859.19;3725603;37;20217;-58
2022/03/03 08:43:16;;;;;;;;;36.75;32.00;;;;;0.51;100.00;100855.22;3724931;37;20314;-59
2022/03/03 08:45:44;;;;;;;;;33.50;32.00;;;;;0.40;100.00;100871.13;3725175;38;19848;-57
2022/03/03 08:48:12;;;;;;;;;27.00;26.75;;;;;0.38;100.00;100855.25;3725520;37;20196;-59
2022/03/03 08:50:41;;;;;;;;;38.75;34.50;;;;;0.41;100.00;100851.53;3725278;37;20211;-57
2022/03/03 08:53:11;;;;;;;;;41.50;36.50;;;;;0.27;100.00;100849.84;3725667;38;19960;-58
2022/03/03 08:55:39;;;;;;;;;37.50;33.75;;;;;0.45;100.00;100842.34;3725521;37;20000;-58
2022/03/03 08:58:10;;;;;;;;;36.25;32.00;;;;;0.44;100.00;100848.66;3725415;38;20102;-58
2022/03/03 09:00:38;;;;;;;;;44.75;40.25;;;;;0.43;100.00;100865.59;3724865;37;20238;-60
2022/03/03 09:03:05;;;;;;;;;33.00;32.00;;;;;0.42;100.00;100848.75;3725012;37;20057;-56
2022/03/03 09:05:34;;;;;;;;;51.25;40.25;;;;;0.43;100.00;100850.47;3725023;37;19822;-59
2022/03/03 09:08:04;;;;;;;;;43.75;35.50;;;;;0.51;100.00;100845.44;3725294;37;19852;-57
2022/03/03 09:10:31;;;;;;;;;44.25;40.00;;;;;0.41;100.00;100846.19;3725065;37;19806;-58
2022/03/03 09:13:00;;;;;;;;;34.50;32.50;;;;;0.36;100.00;100854.53;3725352;37;19971;-58
2022/03/03 09:15:30;;;;;;;;;36.75;34.00;;;;;0.40;100.00;100863.13;3725403;37;20190;-57
2022/03/03 09:18:00;;;;;;;;;34.50;33.50;;;;;0.40;100.00;100868.47;3725582;38;19794;-57
2022/03/03 09:20:28;;;;;;;;;40.50;37.75;;;;;0.38;100.00;100843.75;3725447;37;19850;-61
2022/03/03 09:22:55;;;;;;;;;35.25;31.00;;;;;0.43;100.00;100860.25;3725398;37;19898;-61
2022/03/03 09:25:23;;;;;;;;;37.75;32.50;;;;;0.42;100.00;100842.59;3725040;37;19759;-60
2022/03/03 09:27:50;;;;;;;;;40.00;32.50;;;;;0.39;100.00;100858.78;3725140;38;19800;-58
2022/03/03 09:30:21;;;;;;;;;24.00;23.50;;;;;0.50;100.00;100853.53;3725495;37;19825;-59
2022/03/03 09:32:49;;;;;;;;;31.00;27.75;;;;;0.51;100.00;100841.91;3725135;38;19864;-57
2022/03/03 09:35:18;;;;;;;;;34.25;33.00;;;;;0.61;100.00;100864.22;3724949;37;19838;-59
2022/03/03 09:37:46;;;;;;;;;26.75;26.50;;;;;0.67;100.00;100850.44;3724957;37;20243;-59
2022/03/03 09:40:15;;;;;;;;;41.50;38.50;;;;;0.73;100.00;100857.13;3725160;37;19832;-58
2022/03/03 09:42:58;;;;;;;;;38.75;36.50;;;;;0.78;100.00;100855.84;3725031;38;19920;-58
2022/03/03 09:45:34;;;;;;;;;34.00;30.25;;;;;0.80;100.00;100850.41;3725401;38;19793;-60
2022/03/03 09:48:05;;;;;;;;;46.50;38.25;;;;;0.80;100.00;100853.91;3725452;37;19857;-58
2022/03/03 09:50:37;;;;;;;;;44.50;39.25;;;;;0.75;100.00;100850.72;3725980;37;19797;-57
2022/03/03 09:53:09;;;;;;;;;32.50;30.25;;;;;0.83;100.00;100850.16;3725703;38;19890;-58
2022/03/03 09:55:39;;;;;;;;;44.00;38.50;;;;;0.78;100.00;100831.88;3725419;38;19759;-62
2022/03/03 09:58:08;;;;;;;;;32.50;30.00;;;;;0.88;100.00;100848.88;3726133;38;20081;-61
2022/03/03 10:00:40;;;;;;;;;37.25;33.50;;;;;0.97;100.00;100842.00;3725499;37;19848;-59
2022/03/03 10:03:10;;;;;;;;;33.25;29.50;;;;;0.99;100.00;100843.59;3725263;37;20087;-59
2022/03/03 10:06:00;;;;;;;;;27.75;25.00;;;;;1.06;100.00;100835.94;3725674;38;20079;-59
2022/03/03 10:08:29;;;;;;;;;32.50;31.50;;;;;1.14;100.00;100835.38;3725643;38;20132;-58
2022/03/03 10:11:04;;;;;;;;;39.00;33.75;;;;;1.19;100.00;100830.53;3725947;38;19757;-60
2022/03/03 10:13:47;;;;;;;;;35.75;31.25;;;;;1.21;100.00;100840.13;3725357;38;20115;-64
2022/03/03 10:16:23;;;;;;;;;40.75;37.00;;;;;1.21;100.00;100834.78;3725901;38;19997;-63
2022/03/03 10:19:05;;;;;;;;;36.00;33.75;;;;;1.27;100.00;100830.81;3725931;37;19757;-61
2022/03/03 10:21:38;;;;;;;;;29.00;27.00;;;;;1.16;100.00;100828.97;3725723;37;19815;-61
2022/03/03 10:24:27;;;;;;;;;33.25;31.25;;;;;1.10;100.00;100823.25;3725261;37;19681;-62
2022/03/03 10:26:57;;;;;;;;;37.50;34.25;;;;;1.10;100.00;100826.75;3725710;38;19836;-60
2022/03/03 10:29:28;;;;;;;;;32.50;31.00;;;;;1.11;100.00;100824.94;3725780;37;21093;-62
2022/03/03 10:32:03;;;;;;;;;34.00;31.50;;;;;1.11;100.00;100819.59;3727304;37;21688;-61
2022/03/03 10:34:32;;;;;;;;;30.25;29.00;;;;;1.18;100.00;100815.50;3725641;37;21120;-61
2022/03/03 10:37:07;;;;;;;;;33.00;32.00;;;;;1.20;100.00;100825.09;3725696;37;20683;-64
2022/03/03 10:39:44;;;;;;;;;49.75;42.00;;;;;1.26;100.00;100823.78;3725203;37;20766;-61
2022/03/03 10:42:52;;;;;;;;;34.25;32.00;;;;;1.27;100.00;100818.31;3725825;37;20691;-62
2022/03/03 10:45:21;;;;;;;;;42.50;38.75;;;;;1.20;100.00;100824.25;3726128;37;20982;-62
2022/03/03 10:48:04;;;;;;;;;30.25;27.75;;;;;1.18;100.00;100819.03;3725921;38;20699;-62
2022/03/03 10:50:49;;;;;;;;;33.50;32.00;;;;;1.25;100.00;100816.75;3725323;38;20864;-61
2022/03/03 10:53:23;;;;;;;;;39.75;35.25;;;;;1.37;100.00;100815.81;3725555;38;21008;-62
2022/03/03 10:56:12;;;;;;;;;28.75;26.50;;;;;1.18;100.00;100791.53;3725607;37;20845;-62
2022/03/03 10:59:00;;;;;;;;;35.25;31.00;;;;;1.32;100.00;100823.31;3725240;37;20846;-62
2022/03/03 11:01:36;;;;;;;;;34.50;33.25;;;;;1.31;100.00;100816.28;3725240;37;20877;-63
2022/03/03 11:04:05;;;;;;;;;28.25;25.75;;;;;1.38;100.00;100812.16;3725297;38;20941;-61
2022/03/03 11:06:35;;;;;;;;;39.00;35.25;;;;;1.45;100.00;100817.88;3725571;38;21143;-63
2022/03/03 11:09:02;;;;;;;;;37.75;36.25;;;;;1.48;100.00;100802.50;3725784;37;20958;-61
2022/03/03 11:11:33;;;;;;;;;38.00;35.50;;;;;1.64;100.00;100802.97;3725821;37;20921;-61
2022/03/03 11:14:01;;;;;;;;;40.75;38.25;;;;;1.75;100.00;100809.28;3725740;37;21125;-61
2022/03/03 11:16:28;;;;;;;;;34.75;29.00;;;;;1.82;100.00;100795.34;3725894;37;20746;-64
2022/03/03 11:18:58;;;;;;;;;39.75;35.50;;;;;1.87;100.00;100784.28;3726036;37;20669;-63
2022/03/03 11:21:26;;;;;;;;;38.00;36.00;;;;;1.85;100.00;100796.91;3725665;37;21142;-61
2022/03/03 11:23:58;;;;;;;;;33.75;30.75;;;;;1.93;100.00;100794.47;3725920;38;20769;-62
2022/03/03 11:26:39;;;;;;;;;36.50;35.00;;;;;1.82;100.00;100794.50;3725820;38;20943;-62